Time;durP1;ratioP1;P1;durP2;ratioP2;P2;SDS_P1;SDS_P2;PMS_P1;PMS_P2;Temp;Humidity;BMP_temperature;BMP_pressure;BME280_temperature;BME280_humidity;BME280_pressure;Samples;Min_cycle;Max_cycle;Signal;HPM_P1;HPM_P2
2021/09/14 00:02:00;;;;;;;6.57;4.70;;;;;;;10.60;100.00;101108.50;5022283;28;20220;-75
2021/09/14 00:04:27;;;;;;;5.73;4.37;;;;;;;10.57;100.00;101105.94;5021576;28;20207;-75
2021/09/14 00:06:53;;;;;;;6.17;4.40;;;;;;;10.59;100.00;101112.88;5021709;28;20200;-75
2021/09/14 00:09:21;;;;;;;5.77;4.43;;;;;;;10.52;100.00;101113.03;5022976;28;20200;-75
2021/09/14 00:11:47;;;;;;;6.47;4.97;;;;;;;10.56;100.00;101109.47;5019997;28;20203;-75
2021/09/14 00:14:14;;;;;;;7.63;4.27;;;;;;;10.55;100.00;101118.16;5022027;28;20286;-75
2021/09/14 00:16:40;;;;;;;6.73;4.87;;;;;;;10.52;100.00;101119.09;5020854;28;20852;-75
2021/09/14 00:19:06;;;;;;;5.63;4.80;;;;;;;10.51;100.00;101117.38;5020127;28;20207;-75
2021/09/14 00:21:33;;;;;;;5.77;4.60;;;;;;;10.50;100.00;101120.88;5018783;28;20212;-75
2021/09/14 00:23:59;;;;;;;6.30;4.67;;;;;;;10.44;100.00;101114.91;5028546;28;20656;-75
2021/09/14 00:26:27;;;;;;;5.60;4.63;;;;;;;10.51;100.00;101126.94;5023318;28;20204;-75
2021/09/14 00:28:53;;;;;;;5.80;4.73;;;;;;;10.45;100.00;101122.69;5026201;28;20204;-76
2021/09/14 00:31:19;;;;;;;5.93;5.13;;;;;;;10.36;100.00;101123.72;5021646;28;20200;-75
2021/09/14 00:33:46;;;;;;;6.33;4.83;;;;;;;10.32;100.00;101127.25;5003718;28;20228;-75
2021/09/14 00:36:14;;;;;;;5.97;4.83;;;;;;;10.37;100.00;101127.19;5004302;28;20200;-75
2021/09/14 00:38:41;;;;;;;5.43;4.70;;;;;;;10.42;100.00;101122.75;5023387;28;20216;-75
2021/09/14 00:41:07;;;;;;;5.17;4.50;;;;;;;10.48;100.00;101113.94;5021429;28;20200;-75
2021/09/14 00:43:35;;;;;;;9.30;4.90;;;;;;;10.36;100.00;101113.28;5020641;28;20392;-75
2021/09/14 00:46:01;;;;;;;5.47;4.33;;;;;;;10.29;100.00;101122.06;5022620;28;20200;-75
2021/09/14 00:48:28;;;;;;;5.03;4.23;;;;;;;10.30;100.00;101122.94;5003837;28;20320;-75
2021/09/14 00:50:54;;;;;;;4.80;4.00;;;;;;;10.19;100.00;101126.56;5021381;28;20686;-75
2021/09/14 00:53:21;;;;;;;5.80;4.30;;;;;;;10.29;100.00;101127.28;5017802;28;20617;-75
2021/09/14 00:55:47;;;;;;;5.60;4.30;;;;;;;10.24;100.00;101134.31;5005957;28;20211;-75
2021/09/14 00:58:14;;;;;;;4.30;3.90;;;;;;;10.38;100.00;101123.69;5006419;28;20204;-75
2021/09/14 01:00:43;;;;;;;5.27;4.53;;;;;;;10.25;100.00;101120.38;5022859;28;20258;-75
2021/09/14 01:03:10;;;;;;;7.60;5.23;;;;;;;10.23;100.00;101116.94;5005325;28;20810;-75
2021/09/14 01:05:37;;;;;;;4.90;4.07;;;;;;;10.15;100.00;101121.41;5025144;28;20232;-75
2021/09/14 01:08:04;;;;;;;5.73;4.53;;;;;;;10.08;100.00;101117.19;5004388;28;20215;-75
2021/09/14 01:10:31;;;;;;;5.20;4.27;;;;;;;10.07;100.00;101118.09;5024156;28;20203;-75
2021/09/14 01:12:58;;;;;;;5.33;4.40;;;;;;;10.11;100.00;101112.78;5002656;28;20227;-75
2021/09/14 01:15:25;;;;;;;6.17;4.10;;;;;;;10.14;100.00;101119.72;5001686;28;20236;-75
2021/09/14 01:17:53;;;;;;;5.83;4.40;;;;;;;10.16;100.00;101117.94;5005181;28;20206;-75
2021/09/14 01:21:04;;;;;;;6.63;5.23;;;;;;;10.28;100.00;101112.53;5000389;28;20223;-75
2021/09/14 01:23:33;;;;;;;6.20;4.80;;;;;;;10.28;100.00;101115.13;5004859;28;20223;-75
2021/09/14 01:26:02;;;;;;;6.13;4.73;;;;;;;10.29;100.00;101111.66;5001334;28;20227;-75
2021/09/14 01:28:29;;;;;;;6.97;5.40;;;;;;;10.32;100.00;101115.97;5005247;28;20200;-75
2021/09/14 01:30:56;;;;;;;6.33;5.07;;;;;;;10.29;100.00;101108.16;5008975;28;20207;-75
2021/09/14 01:33:25;;;;;;;6.70;5.20;;;;;;;10.36;100.00;101113.28;5003566;28;20295;-75
2021/09/14 01:35:53;;;;;;;8.33;5.67;;;;;;;10.39;100.00;101112.38;5003866;28;20197;-75
2021/09/14 01:38:19;;;;;;;8.27;5.30;;;;;;;10.44;100.00;101110.53;5003003;28;20211;-75
2021/09/14 01:40:48;;;;;;;7.53;5.30;;;;;;;10.49;100.00;101111.31;5003216;28;20200;-76
2021/09/14 01:43:19;;;;;;;7.67;5.17;;;;;;;10.60;100.00;101117.19;5003230;28;20450;-75
2021/09/14 01:45:48;;;;;;;7.43;5.30;;;;;;;10.64;100.00;101114.53;5020337;28;20212;-75
2021/09/14 01:48:22;;;;;;;8.17;5.13;;;;;;;10.68;100.00;101111.84;5014793;28;20200;-75
2021/09/14 01:50:48;;;;;;;8.93;5.30;;;;;;;10.82;100.00;101113.31;5020947;28;20222;-75
2021/09/14 01:53:15;;;;;;;6.50;5.27;;;;;;;10.83;100.00;101108.06;5015719;28;20897;-75
2021/09/14 01:55:41;;;;;;;6.40;5.30;;;;;;;10.98;100.00;101106.94;5023998;28;20222;-75
2021/09/14 01:58:12;;;;;;;9.03;5.27;;;;;;;10.96;100.00;101108.72;5005833;28;20243;-75
2021/09/14 02:00:45;;;;;;;6.70;5.27;;;;;;;10.84;100.00;101117.63;5002424;28;20323;-75
2021/09/14 02:03:33;;;;;;;6.80;5.43;;;;;;;10.96;100.00;101112.16;5004549;28;20306;-75
2021/09/14 02:09:12;;;;;;;8.43;5.63;;;;;;;10.98;100.00;101106.94;5014036;28;21457;-76
2021/09/14 02:33:53;;;;;;;7.90;5.00;;;;;;;11.38;100.00;101098.28;5017881;28;20324;-76
2021/09/14 02:58:38;;;;;;;8.10;4.40;;;;;;;11.85;100.00;101083.22;5007186;28;20201;-75
2021/09/14 03:01:05;;;;;;;5.37;4.47;;;;;;;11.72;100.00;101080.06;5019774;28;20326;-75
2021/09/14 03:03:33;;;;;;;4.77;4.23;;;;;;;11.78;100.00;101076.44;5027403;28;20301;-75
2021/09/14 03:06:00;;;;;;;6.23;4.50;;;;;;;11.87;100.00;101075.34;5018604;28;20610;-75
2021/09/14 03:08:26;;;;;;;7.10;4.37;;;;;;;11.91;100.00;101077.06;5029996;28;20299;-75
2021/09/14 03:10:53;;;;;;;5.87;4.40;;;;;;;11.97;100.00;101076.03;5016514;28;20218;-74
2021/09/14 03:13:20;;;;;;;4.80;4.27;;;;;;;12.03;100.00;101070.63;5007466;28;20700;-75
2021/09/14 03:15:47;;;;;;;6.57;4.80;;;;;;;12.02;100.00;101074.16;5005146;28;20217;-75
2021/09/14 03:18:14;;;;;;;4.77;4.13;;;;;;;12.06;100.00;101066.19;5007070;28;20273;-75
2021/09/14 03:20:43;;;;;;;6.47;4.80;;;;;;;12.00;100.00;101065.53;5004310;28;20251;-75
2021/09/14 03:23:10;;;;;;;5.83;4.30;;;;;;;12.04;100.00;101065.38;5005205;28;20643;-75
2021/09/14 03:25:36;;;;;;;5.00;4.47;;;;;;;12.08;100.00;101064.44;5008451;28;20222;-75
2021/09/14 03:28:03;;;;;;;5.47;4.40;;;;;;;12.08;100.00;101071.38;5006879;28;20219;-75
2021/09/14 03:30:32;;;;;;;6.13;4.60;;;;;;;12.04;100.00;101060.16;5006864;28;20279;-75
2021/09/14 03:33:01;;;;;;;5.30;4.17;;;;;;;12.00;100.00;101061.13;5004614;28;20294;-75
2021/09/14 03:35:27;;;;;;;8.17;4.73;;;;;;;12.01;100.00;101057.63;5006370;28;20666;-74
2021/09/14 03:37:55;;;;;;;4.57;4.00;;;;;;;12.08;100.00;101056.59;5008434;28;20206;-74
2021/09/14 03:40:22;;;;;;;5.60;4.63;;;;;;;12.12;100.00;101057.38;5024191;28;20238;-74
2021/09/14 03:42:48;;;;;;;8.70;5.00;;;;;;;12.11;100.00;101051.25;5020939;28;20294;-74
2021/09/14 03:45:15;;;;;;;4.77;4.13;;;;;;;12.23;100.00;101054.47;5007386;28;20199;-74
2021/09/14 03:47:42;;;;;;;7.43;4.40;;;;;;;12.19;100.00;101047.59;5004737;28;20315;-75
2021/09/14 03:50:12;;;;;;;5.17;4.67;;;;;;;12.16;100.00;101048.53;5004757;28;20225;-74
2021/09/14 03:52:40;;;;;;;5.73;4.47;;;;;;;12.17;100.00;101050.25;5006193;28;20264;-75
2021/09/14 03:55:09;;;;;;;6.47;4.33;;;;;;;12.13;100.00;101049.47;5006162;28;20210;-74
2021/09/14 03:57:39;;;;;;;7.53;4.73;;;;;;;12.05;100.00;101043.59;5007314;28;20227;-75
2021/09/14 04:00:07;;;;;;;7.30;4.53;;;;;;;12.19;100.00;101043.22;5003730;28;20336;-75
2021/09/14 04:02:44;;;;;;;5.60;4.47;;;;;;;12.16;100.00;101042.47;5024718;28;20696;-74
2021/09/14 04:05:28;;;;;;;4.53;4.10;;;;;;;12.21;100.00;101040.59;5003577;28;20203;-74
2021/09/14 04:08:49;;;;;;;6.27;4.33;;;;;;;12.13;100.00;101040.78;5010874;28;20230;-74
2021/09/14 04:10:44;;;;;;;4.30;3.90;;;;;;;12.07;100.00;101049.63;5004845;28;20205;-74
2021/09/14 04:13:14;;;;;;;5.27;4.53;;;;;;;12.09;100.00;101052.22;5004986;28;20702;-75
2021/09/14 04:15:40;;;;;;;5.10;4.60;;;;;;;12.14;100.00;101047.72;5002671;28;20621;-75
2021/09/14 04:18:10;;;;;;;4.80;4.23;;;;;;;12.18;100.00;101043.28;5013547;28;20207;-74
2021/09/14 04:20:37;;;;;;;4.73;4.17;;;;;;;12.14;100.00;101045.09;5014403;28;20225;-74
2021/09/14 04:23:03;;;;;;;7.40;5.27;;;;;;;12.10;100.00;101043.44;5005823;28;20300;-75
2021/09/14 04:25:30;;;;;;;6.47;4.33;;;;;;;12.06;100.00;101047.06;5024729;28;20242;-75
2021/09/14 04:27:58;;;;;;;4.67;3.80;;;;;;;12.01;100.00;101048.91;5015428;28;20216;-74
2021/09/14 04:30:24;;;;;;;5.00;4.37;;;;;;;12.00;100.00;101047.22;5008697;28;20295;-74
2021/09/14 04:32:51;;;;;;;6.83;4.87;;;;;;;11.89;100.00;101042.22;5001908;28;20286;-77
2021/09/14 04:35:17;;;;;;;5.07;4.50;;;;;;;11.92;100.00;101050.00;5005923;28;20759;-77
2021/09/14 04:37:44;;;;;;;4.30;3.90;;;;;;;11.88;100.00;101050.97;5004014;28;20300;-74
2021/09/14 04:40:11;;;;;;;5.97;4.23;;;;;;;11.80;100.00;101040.69;5004853;28;20310;-74
2021/09/14 04:42:40;;;;;;;5.40;4.20;;;;;;;11.86;100.00;101043.16;5004056;28;20577;-74
2021/09/14 04:45:09;;;;;;;8.30;5.17;;;;;;;11.86;100.00;101037.94;5005465;28;20317;-74
2021/09/14 04:47:36;;;;;;;6.57;4.87;;;;;;;11.83;100.00;101042.38;5017935;28;20379;-74
2021/09/14 04:50:03;;;;;;;4.37;3.67;;;;;;;11.83;100.00;101045.00;5004005;28;20726;-74
2021/09/14 04:52:32;;;;;;;5.97;4.57;;;;;;;11.80;100.00;101040.69;5005720;28;20660;-74
2021/09/14 04:54:59;;;;;;;5.93;4.47;;;;;;;11.75;100.00;101050.41;5000303;28;20211;-75
2021/09/14 04:57:25;;;;;;;6.07;5.07;;;;;;;11.64;100.00;101052.41;5002003;28;20631;-74
2021/09/14 04:59:52;;;;;;;7.67;4.30;;;;;;;11.55;100.00;101056.09;5002725;28;20228;-74
2021/09/14 05:02:20;;;;;;;9.63;4.90;;;;;;;11.49;100.00;101054.47;5003375;28;20334;-74
2021/09/14 05:04:46;;;;;;;5.50;4.57;;;;;;;11.51;100.00;101055.31;4998287;28;20204;-74
2021/09/14 05:07:13;;;;;;;6.13;4.73;;;;;;;11.58;100.00;101047.34;5005270;28;20224;-75
2021/09/14 05:09:39;;;;;;;5.63;4.53;;;;;;;11.48;100.00;101052.75;5003264;28;20642;-74
2021/09/14 05:12:06;;;;;;;5.70;5.07;;;;;;;11.43;100.00;101052.00;5004476;28;20232;-74
2021/09/14 05:14:34;;;;;;;8.17;4.93;;;;;;;11.53;100.00;101050.91;5001394;28;20208;-74
2021/09/14 05:17:24;;;;;;;7.40;5.70;;;;;;;11.48;100.00;101052.75;5021317;28;20209;-77
2021/09/14 05:19:57;;;;;;;6.23;5.27;;;;;;;11.47;100.00;101055.44;5000526;28;20315;-77
2021/09/14 05:22:30;;;;;;;6.93;5.60;;;;;;;11.52;100.00;101057.03;5020469;28;20336;-77
2021/09/14 05:24:56;;;;;;;6.30;4.93;;;;;;;11.59;100.00;101055.16;5000433;28;20283;-77
2021/09/14 05:27:23;;;;;;;7.60;5.33;;;;;;;11.61;100.00;101052.47;5019293;28;20238;-74
2021/09/14 05:29:49;;;;;;;9.30;6.37;;;;;;;11.66;100.00;101061.06;5006816;28;20645;-74
2021/09/14 05:32:18;;;;;;;9.30;6.17;;;;;;;11.61;100.00;101063.78;5005397;28;20706;-74
2021/09/14 05:34:46;;;;;;;15.60;6.47;;;;;;;11.74;100.00;101066.97;4998045;28;20284;-74
2021/09/14 05:37:14;;;;;;;8.47;6.23;;;;;;;11.74;100.00;101064.34;4998331;28;20214;-77
2021/09/14 05:39:42;;;;;;;11.23;6.40;;;;;;;11.73;100.00;101062.63;5006067;28;20307;-77
2021/09/14 05:42:08;;;;;;;6.57;5.60;;;;;;;11.78;100.00;101059.91;5018504;28;20247;-77
2021/09/14 05:44:36;;;;;;;9.63;7.23;;;;;;;11.78;100.00;101062.53;5004599;28;20573;-74
2021/09/14 05:47:05;;;;;;;8.93;6.40;;;;;;;11.79;100.00;101056.41;5005637;28;20204;-74
2021/09/14 05:49:33;;;;;;;9.90;7.40;;;;;;;11.77;100.00;101058.19;5000461;28;20209;-74
2021/09/14 05:52:00;;;;;;;13.33;8.00;;;;;;;11.77;100.00;101064.28;5010632;28;20326;-74
2021/09/14 05:54:27;;;;;;;10.57;7.50;;;;;;;11.88;100.00;101059.66;5001836;28;20251;-74
2021/09/14 05:56:56;;;;;;;10.17;7.67;;;;;;;11.98;100.00;101067.28;5022319;28;20266;-77
2021/09/14 05:59:23;;;;;;;8.90;6.90;;;;;;;12.01;100.00;101068.06;5000131;28;20216;-77
2021/09/14 06:01:50;;;;;;;12.90;8.10;;;;;;;12.02;100.00;101066.34;4996023;28;20193;-77
2021/09/14 06:04:16;;;;;;;12.33;8.80;;;;;;;12.05;100.00;101067.09;5003851;28;20205;-77
2021/09/14 06:06:43;;;;;;;11.50;8.87;;;;;;;12.16;100.00;101076.44;5010185;28;20218;-77
2021/09/14 06:09:13;;;;;;;11.97;8.33;;;;;;;12.23;100.00;101072.78;5005071;28;20234;-77
2021/09/14 06:11:40;;;;;;;12.23;8.47;;;;;;;12.31;100.00;101069.06;5023719;28;20233;-77
2021/09/14 06:14:06;;;;;;;13.67;8.87;;;;;;;12.42;100.00;101068.78;5004567;28;20284;-77
2021/09/14 06:16:33;;;;;;;13.13;8.83;;;;;;;12.52;100.00;101066.75;5008752;28;20793;-77
2021/09/14 06:18:59;;;;;;;11.10;8.13;;;;;;;12.63;100.00;101072.56;5024997;28;20261;-77
2021/09/14 06:21:28;;;;;;;13.23;8.73;;;;;;;12.74;100.00;101069.66;5007890;28;20308;-77
2021/09/14 06:23:55;;;;;;;12.07;8.37;;;;;;;12.83;100.00;101069.38;5007008;28;20234;-77
2021/09/14 06:26:23;;;;;;;8.63;6.80;;;;;;;12.92;100.00;101073.50;5003468;28;20206;-76
2021/09/14 06:28:49;;;;;;;12.13;8.47;;;;;;;13.04;100.00;101070.50;5008459;28;20212;-76
2021/09/14 06:31:16;;;;;;;12.77;7.70;;;;;;;13.14;100.00;101081.59;5008544;28;20207;-76
2021/09/14 06:33:43;;;;;;;9.13;7.20;;;;;;;13.29;100.00;101080.25;5012890;28;20229;-76
2021/09/14 06:36:09;;;;;;;8.53;6.93;;;;;;;13.40;100.00;101074.72;5019781;28;20290;-76
2021/09/14 06:38:37;;;;;;;11.67;6.73;;;;;;;13.49;100.00;101077.09;5011088;28;20716;-75
2021/09/14 06:41:03;;;;;;;9.03;6.10;;;;;;;13.59;100.00;101070.63;5006296;28;20223;-76
2021/09/14 06:43:43;;;;;;;9.23;6.87;;;;;;;13.70;100.00;101079.91;5004605;28;20238;-75
2021/09/14 06:46:15;;;;;;;8.03;6.27;;;;;;;13.78;100.00;101075.28;5023405;28;20211;-76
2021/09/14 06:48:54;;;;;;;6.90;5.90;;;;;;;13.90;100.00;101077.50;5007477;28;20678;-75
2021/09/14 06:51:21;;;;;;;9.40;6.00;;;;;;;14.00;100.00;101078.94;5029491;28;20278;-75
2021/09/14 06:53:47;;;;;;;6.53;5.70;;;;;;;14.09;100.00;101080.38;5021123;28;20247;-76
2021/09/14 06:56:13;;;;;;;8.33;6.00;;;;;;;14.16;100.00;101075.81;5026388;28;20845;-76
2021/09/14 06:58:45;;;;;;;7.27;5.37;;;;;;;14.24;100.00;101078.16;5005623;28;20572;-75
2021/09/14 07:01:18;;;;;;;9.00;5.90;;;;;;;14.33;100.00;101077.81;5022603;28;20270;-75
2021/09/14 07:03:44;;;;;;;8.43;5.40;;;;;;;14.42;100.00;101074.03;5022610;28;20745;-75
2021/09/14 07:06:11;;;;;;;7.20;5.10;;;;;;;14.49;100.00;101081.66;5023785;28;20227;-75
2021/09/14 07:08:37;;;;;;;6.47;5.40;;;;;;;14.60;100.00;101075.16;5025080;28;20212;-75
2021/09/14 07:11:04;;;;;;;7.47;5.33;;;;;;;14.64;100.00;101082.03;5024062;28;20203;-76
2021/09/14 07:13:30;;;;;;;7.83;5.50;;;;;;;14.72;100.00;101079.97;5023136;28;20238;-76
2021/09/14 07:15:58;;;;;;;5.90;5.00;;;;;;;14.78;100.00;101079.78;5022706;28;20208;-75
2021/09/14 07:18:25;;;;;;;6.27;4.80;;;;;;;14.86;100.00;101077.72;5025180;28;20202;-76
2021/09/14 07:20:51;;;;;;;6.40;4.37;;;;;;;14.95;100.00;101077.38;5019876;28;20214;-75
2021/09/14 07:23:20;;;;;;;5.50;4.77;;;;;;;15.04;100.00;101083.19;5024124;28;20219;-75
2021/09/14 07:25:46;;;;;;;6.03;4.77;;;;;;;15.15;100.00;101083.66;5019602;28;20321;-76
2021/09/14 07:28:13;;;;;;;9.30;5.00;;;;;;;15.21;100.00;101083.41;5025886;28;20661;-75
2021/09/14 07:30:40;;;;;;;5.87;4.73;;;;;;;15.26;100.00;101088.50;5017749;28;20201;-75
2021/09/14 07:33:09;;;;;;;7.17;4.70;;;;;;;15.34;100.00;101089.06;5014647;28;20667;-75
2021/09/14 07:35:35;;;;;;;5.40;4.23;;;;;;;15.43;100.00;101083.44;5020743;28;20674;-75
2021/09/14 07:38:01;;;;;;;6.80;4.70;;;;;;;15.56;100.00;101085.59;5025930;28;20240;-76
2021/09/14 07:40:28;;;;;;;5.70;4.60;;;;;;;15.63;100.00;101085.28;5022356;28;20234;-76
2021/09/14 07:42:55;;;;;;;5.87;4.30;;;;;;;15.70;100.00;101083.25;5023264;28;20238;-75
2021/09/14 07:45:22;;;;;;;5.10;4.37;;;;;;;15.81;99.97;101080.22;5021524;28;20204;-75
2021/09/14 07:47:48;;;;;;;5.43;4.07;;;;;;;15.90;98.23;101093.88;5024673;28;20622;-76
2021/09/14 07:50:16;;;;;;;5.93;4.20;;;;;;;15.95;97.86;101088.41;5030365;28;20198;-76
2021/09/14 07:52:43;;;;;;;4.47;3.70;;;;;;;16.03;97.74;101096.00;5025272;28;20231;-76
2021/09/14 07:55:10;;;;;;;7.27;4.10;;;;;;;16.12;97.21;101089.50;5025386;28;20211;-76
2021/09/14 07:57:36;;;;;;;4.40;3.90;;;;;;;16.24;97.52;101096.88;5023996;28;20591;-76
2021/09/14 08:00:03;;;;;;;8.30;4.07;;;;;;;16.36;96.55;101100.72;5024276;28;20850;-76
2021/09/14 08:02:38;;;;;;;4.97;4.10;;;;;;;16.45;94.79;101098.56;5009983;28;20238;-76
2021/09/14 08:05:06;;;;;;;5.83;3.83;;;;;;;16.51;95.15;101099.22;5018695;28;20203;-76
2021/09/14 08:07:34;;;;;;;6.80;3.87;;;;;;;16.59;96.02;101094.50;5020915;28;20844;-76
2021/09/14 08:10:00;;;;;;;5.83;3.77;;;;;;;16.69;95.20;101098.41;5021019;28;20207;-76
2021/09/14 08:12:26;;;;;;;4.27;3.43;;;;;;;16.76;94.60;101094.63;5019474;28;20267;-76
2021/09/14 08:14:53;;;;;;;5.63;3.83;;;;;;;16.86;97.03;101087.16;5027519;28;20949;-76
2021/09/14 08:17:19;;;;;;;5.20;3.60;;;;;;;16.91;92.92;101100.16;5021622;28;20212;-76
2021/09/14 08:19:48;;;;;;;5.13;3.70;;;;;;;16.99;94.33;101095.38;5005686;28;20200;-76
2021/09/14 08:22:14;;;;;;;6.30;3.40;;;;;;;17.06;91.30;101109.13;5020457;28;20294;-76
2021/09/14 08:24:42;;;;;;;5.40;3.90;;;;;;;17.03;89.42;101104.84;5021030;28;20567;-76
2021/09/14 08:27:08;;;;;;;5.57;3.83;;;;;;;17.12;90.33;101107.06;5019565;28;20570;-76
2021/09/14 08:29:35;;;;;;;6.60;3.77;;;;;;;17.28;88.57;101106.38;5022263;28;20223;-76
2021/09/14 08:32:01;;;;;;;4.37;3.77;;;;;;;17.35;88.65;101106.00;5017312;28;20289;-76
2021/09/14 08:34:27;;;;;;;4.20;3.40;;;;;;;17.37;89.00;101104.13;5022115;28;20295;-76
2021/09/14 08:36:54;;;;;;;6.20;3.40;;;;;;;17.42;87.82;101096.03;5018096;28;20315;-76
2021/09/14 08:39:20;;;;;;;3.63;3.10;;;;;;;17.55;88.89;101088.38;5016969;28;20211;-76
2021/09/14 08:41:48;;;;;;;3.60;3.30;;;;;;;17.68;85.33;101101.84;5024881;28;20223;-76
2021/09/14 08:44:15;;;;;;;3.40;3.07;;;;;;;17.71;85.43;101099.03;5020398;28;20682;-76
2021/09/14 08:46:42;;;;;;;3.10;2.80;;;;;;;17.85;84.45;101095.72;5016482;28;20209;-76
2021/09/14 08:49:11;;;;;;;4.20;3.30;;;;;;;17.88;83.71;101100.91;5018950;28;20581;-76
2021/09/14 08:51:38;;;;;;;5.20;3.13;;;;;;;17.96;85.26;101096.94;5007833;28;20211;-76
2021/09/14 08:54:04;;;;;;;4.77;3.30;;;;;;;18.04;85.46;101096.56;5022702;28;20659;-76
2021/09/14 08:56:31;;;;;;;4.20;3.23;;;;;;;18.07;83.35;101096.41;5017146;28;20251;-76
2021/09/14 08:59:01;;;;;;;3.73;3.10;;;;;;;18.13;83.96;101084.69;5021241;28;20954;-76
2021/09/14 09:01:29;;;;;;;3.23;2.93;;;;;;;18.20;82.03;101088.72;5021417;28;20243;-76
2021/09/14 09:04:00;;;;;;;3.23;2.60;;;;;;;18.39;82.64;101096.56;5017085;28;20223;-76
2021/09/14 09:06:33;;;;;;;4.93;2.70;;;;;;;18.48;83.59;101088.16;5020276;28;20224;-76
2021/09/14 09:09:11;;;;;;;3.70;2.87;;;;;;;18.55;81.20;101092.19;5023061;28;20211;-76
2021/09/14 09:11:38;;;;;;;3.87;2.50;;;;;;;18.70;81.70;101087.91;5018557;28;20584;-76
2021/09/14 09:14:06;;;;;;;3.50;2.40;;;;;;;18.80;79.90;101098.81;5023342;28;20628;-76
2021/09/14 09:16:33;;;;;;;3.43;2.20;;;;;;;18.79;77.55;101101.56;5018912;28;20210;-76
2021/09/14 09:19:01;;;;;;;3.17;2.87;;;;;;;18.81;78.11;101100.53;5022259;28;20218;-76
2021/09/14 09:21:29;;;;;;;4.97;2.53;;;;;;;18.89;79.32;101090.44;5022521;28;20223;-76
2021/09/14 09:23:56;;;;;;;3.53;2.77;;;;;;;19.05;77.48;101097.53;5020975;28;20224;-76
2021/09/14 09:26:30;;;;;;;3.40;3.10;;;;;;;19.05;74.10;101095.75;5025944;28;20226;-76
2021/09/14 09:28:58;;;;;;;3.40;2.70;;;;;;;19.09;77.90;101092.00;5019884;28;20666;-76
2021/09/14 09:31:26;;;;;;;2.90;2.57;;;;;;;19.14;79.32;101089.13;5024624;28;20210;-76
2021/09/14 09:34:00;;;;;;;4.30;2.53;;;;;;;19.22;74.93;101104.53;5017399;28;20717;-76
2021/09/14 09:36:30;;;;;;;2.90;2.60;;;;;;;19.30;73.08;101110.28;5019668;28;20298;-76
2021/09/14 09:38:58;;;;;;;4.03;2.93;;;;;;;19.16;72.13;101107.53;5017051;28;20255;-76
2021/09/14 09:41:25;;;;;;;3.27;2.83;;;;;;;19.20;75.00;101101.97;5019452;28;20224;-76
2021/09/14 09:43:52;;;;;;;3.20;2.90;;;;;;;19.36;72.83;101106.44;5018004;28;20227;-76
2021/09/14 09:46:20;;;;;;;6.70;2.63;;;;;;;19.44;71.85;101101.59;5026527;28;20208;-76
2021/09/14 09:48:49;;;;;;;2.77;2.57;;;;;;;19.46;73.56;101100.53;5021307;28;20696;-76
2021/09/14 09:51:15;;;;;;;2.80;2.60;;;;;;;19.56;71.59;101105.31;5018724;28;20200;-76
2021/09/14 09:53:42;;;;;;;3.20;2.90;;;;;;;19.51;71.95;101099.41;5024305;28;20229;-76
2021/09/14 09:56:09;;;;;;;2.73;2.53;;;;;;;19.58;72.21;101093.72;5024251;28;20208;-76
2021/09/14 09:58:36;;;;;;;3.23;2.83;;;;;;;19.49;72.13;101094.25;5024056;28;20215;-75
2021/09/14 10:01:08;;;;;;;3.67;3.00;;;;;;;19.42;74.86;101088.44;5016688;28;20228;-76
2021/09/14 10:03:38;;;;;;;3.40;3.10;;;;;;;19.55;75.19;101085.13;5026273;28;20550;-76
2021/09/14 10:06:10;;;;;;;4.03;3.60;;;;;;;19.49;74.46;101091.59;5014299;28;20266;-76
2021/09/14 10:08:37;;;;;;;3.73;3.30;;;;;;;19.56;73.77;101086.78;5022679;28;20200;-76
2021/09/14 10:11:04;;;;;;;3.27;2.97;;;;;;;19.50;74.01;101085.34;5015221;28;20231;-76
2021/09/14 10:13:32;;;;;;;4.40;3.60;;;;;;;19.42;74.02;101084.97;5022965;28;20220;-75
2021/09/14 10:15:58;;;;;;;3.53;3.23;;;;;;;19.63;72.08;101075.81;5017975;28;20286;-76
2021/09/14 10:18:30;;;;;;;6.07;3.67;;;;;;;19.76;71.03;101080.44;5020695;28;20210;-76
2021/09/14 10:20:56;;;;;;;3.70;3.40;;;;;;;19.74;71.39;101079.66;5022089;28;20203;-76
2021/09/14 10:23:30;;;;;;;3.80;3.50;;;;;;;19.76;69.47;101081.28;5018388;28;20815;-75
2021/09/14 10:26:05;;;;;;;4.43;3.77;;;;;;;19.94;70.00;101075.84;5021993;28;20203;-76
2021/09/14 10:28:43;;;;;;;4.63;3.73;;;;;;;19.91;68.04;101076.03;5019418;28;20215;-76
2021/09/14 10:31:20;;;;;;;4.27;3.80;;;;;;;19.95;67.77;101077.56;5026960;28;20206;-76
2021/09/14 10:33:47;;;;;;;6.73;3.40;;;;;;;20.11;67.93;101070.44;5012960;28;20226;-76
2021/09/14 10:36:13;;;;;;;3.93;3.53;;;;;;;20.32;67.92;101068.28;5022373;28;20208;-76
2021/09/14 10:38:48;;;;;;;6.77;3.80;;;;;;;20.31;67.02;101071.88;5015957;28;20208;-76
2021/09/14 10:41:15;;;;;;;4.97;3.90;;;;;;;20.46;66.70;101061.31;5021845;28;20218;-76
2021/09/14 10:43:53;;;;;;;6.23;3.80;;;;;;;20.50;67.35;101063.69;5019437;28;20704;-76
2021/09/14 10:46:21;;;;;;;4.17;3.83;;;;;;;20.49;66.10;101066.41;5020176;28;20683;-76
2021/09/14 10:48:48;;;;;;;6.37;3.83;;;;;;;20.37;65.20;101063.56;5015143;28;20196;-76
2021/09/14 10:51:17;;;;;;;3.87;3.53;;;;;;;20.47;68.92;101058.56;5015954;28;20674;-76
2021/09/14 10:53:55;;;;;;;4.87;3.20;;;;;;;20.67;65.64;101067.09;5022175;28;20231;-76
2021/09/14 10:56:21;;;;;;;4.47;3.90;;;;;;;20.89;64.93;101064.84;5019556;28;20257;-76
2021/09/14 10:58:48;;;;;;;3.80;3.50;;;;;;;20.95;64.50;101063.63;5028853;28;20212;-76
2021/09/14 11:01:22;;;;;;;5.27;3.83;;;;;;;20.82;64.85;101065.31;5022495;28;20250;-76
2021/09/14 11:03:50;;;;;;;4.57;4.17;;;;;;;20.87;65.54;101058.78;5025621;28;20231;-76
2021/09/14 11:06:16;;;;;;;4.27;3.60;;;;;;;20.93;64.11;101058.41;5021175;28;20196;-76
2021/09/14 11:08:45;;;;;;;4.27;3.70;;;;;;;20.95;65.16;101056.50;5024212;28;20767;-76
2021/09/14 11:11:16;;;;;;;5.77;3.87;;;;;;;20.95;64.03;101063.63;5022966;28;20208;-76
2021/09/14 11:13:42;;;;;;;5.30;3.87;;;;;;;20.90;64.80;101055.09;5024504;28;20239;-76
2021/09/14 11:16:09;;;;;;;4.40;3.70;;;;;;;20.99;66.83;101052.72;5024831;28;20392;-76
2021/09/14 11:18:36;;;;;;;4.23;3.83;;;;;;;21.21;64.90;101059.28;5024311;28;20295;-76
2021/09/14 11:21:05;;;;;;;5.87;3.77;;;;;;;21.29;67.41;101046.41;5024961;28;20681;-76
2021/09/14 11:23:32;;;;;;;5.07;4.10;;;;;;;21.30;65.35;101053.41;5019440;28;20234;-76
2021/09/14 11:25:58;;;;;;;4.83;3.87;;;;;;;21.35;63.76;101053.97;5023695;28;20215;-76
2021/09/14 11:28:27;;;;;;;4.10;3.53;;;;;;;21.30;62.44;101055.19;5020810;28;20707;-76
2021/09/14 11:30:56;;;;;;;5.50;4.33;;;;;;;21.28;63.20;101046.50;5025310;28;20214;-76
2021/09/14 11:33:24;;;;;;;6.70;4.20;;;;;;;21.35;62.19;101046.03;5039499;23;20262;-74
2021/09/14 11:35:51;;;;;;;5.20;4.33;;;;;;;21.41;61.17;101042.13;5041219;28;20210;-73
2021/09/14 11:38:19;;;;;;;3.90;3.60;;;;;;;21.55;62.91;101036.78;5027170;28;20745;-73
2021/09/14 11:40:47;;;;;;;4.47;3.87;;;;;;;21.67;63.23;101031.59;5047020;28;20234;-73
2021/09/14 11:43:17;;;;;;;4.67;4.13;;;;;;;21.75;63.25;101032.78;5034883;28;20230;-73
2021/09/14 11:45:46;;;;;;;5.60;3.97;;;;;;;21.73;62.83;101034.72;5026102;28;20207;-73
2021/09/14 11:48:17;;;;;;;7.03;4.13;;;;;;;21.70;64.20;101029.59;5025945;28;20196;-73
2021/09/14 11:50:43;;;;;;;5.03;4.40;;;;;;;21.59;64.80;101031.28;5024180;28;20207;-73
2021/09/14 11:53:14;;;;;;;4.40;4.00;;;;;;;21.73;61.74;101036.50;5027769;28;20214;-73
2021/09/14 11:55:42;;;;;;;6.57;3.97;;;;;;;21.73;60.19;101037.34;5030070;28;20808;-73
2021/09/14 11:58:09;;;;;;;4.53;4.07;;;;;;;21.75;60.01;101030.13;5025440;28;20204;-73
2021/09/14 12:00:37;;;;;;;4.03;3.60;;;;;;;21.83;62.62;101024.34;5026379;28;20208;-73
2021/09/14 12:03:06;;;;;;;4.43;4.00;;;;;;;21.86;60.68;101018.84;5025995;28;20224;-73
2021/09/14 12:05:32;;;;;;;5.87;4.20;;;;;;;21.83;60.65;101019.03;5023538;28;20653;-73
2021/09/14 12:08:01;;;;;;;4.83;4.03;;;;;;;21.85;63.74;101010.97;5027317;28;20305;-73
2021/09/14 12:10:28;;;;;;;4.57;4.00;;;;;;;21.85;63.74;101006.50;5025296;28;20196;-73
2021/09/14 12:12:56;;;;;;;5.37;4.10;;;;;;;21.88;62.96;101005.44;5025210;28;20224;-73